createdAt,value
2019-06-26T00:00:19.778Z,5.75
2019-06-26T00:02:50.862Z,7.85
2019-06-26T00:05:21.708Z,7.25
2019-06-26T00:07:52.470Z,6.95
2019-06-26T00:10:23.568Z,5.92
2019-06-26T00:12:55.512Z,11.15
2019-06-26T00:15:27.941Z,6.87
2019-06-26T00:17:59.016Z,5.92
2019-06-26T00:20:29.788Z,7.67
2019-06-26T00:23:00.576Z,7.03
2019-06-26T00:25:31.692Z,6.60
2019-06-26T00:28:23.580Z,6.92
2019-06-26T00:30:54.973Z,6.00
2019-06-26T00:33:27.609Z,6.62
2019-06-26T00:35:58.709Z,7.60
2019-06-26T00:38:29.559Z,9.93
2019-06-26T00:41:00.617Z,5.72
2019-06-26T00:43:41.895Z,6.12
2019-06-26T00:46:04.250Z,7.10
2019-06-26T00:51:26.744Z,7.35
2019-06-26T00:54:22.229Z,9.87
2019-06-26T01:01:08.941Z,6.67
2019-06-26T01:03:39.635Z,6.92
2019-06-26T01:06:31.337Z,8.40
2019-06-26T01:09:27.335Z,7.97
2019-06-26T01:11:58.077Z,8.23
2019-06-26T01:14:29.354Z,6.80
2019-06-26T01:17:00.348Z,8.15
2019-06-26T01:19:31.322Z,7.17
2019-06-26T01:22:02.074Z,6.90
2019-06-26T01:24:32.884Z,7.75
2019-06-26T01:27:03.725Z,7.15
2019-06-26T01:29:34.788Z,7.62
2019-06-26T01:32:05.709Z,8.00
2019-06-26T01:34:37.089Z,6.83
2019-06-26T01:37:08.158Z,6.87
2019-06-26T01:39:38.904Z,7.17
2019-06-26T01:42:10.106Z,7.22
2019-06-26T01:44:40.853Z,8.65
2019-06-26T01:47:11.676Z,7.25
2019-06-26T01:49:42.915Z,6.53
2019-06-26T01:52:13.911Z,8.18
2019-06-26T01:54:44.861Z,7.92
2019-06-26T01:57:16.113Z,9.70
2019-06-26T01:59:47.627Z,7.62
2019-06-26T02:02:18.378Z,8.30
2019-06-26T02:04:49.192Z,6.55
2019-06-26T02:07:20.028Z,7.95
2019-06-26T02:09:50.772Z,7.03
2019-06-26T02:12:21.542Z,7.22
2019-06-26T02:14:52.286Z,9.40
2019-06-26T02:17:23.500Z,6.80
2019-06-26T02:19:54.548Z,6.87
2019-06-26T02:22:25.594Z,6.75
2019-06-26T02:24:56.325Z,8.10
2019-06-26T02:27:27.078Z,7.33
2019-06-26T02:29:58.049Z,7.20
2019-06-26T02:32:29.105Z,9.38
2019-06-26T02:34:59.893Z,8.35
2019-06-26T02:37:30.710Z,7.53
2019-06-26T02:40:01.705Z,9.07
2019-06-26T02:42:32.760Z,7.42
2019-06-26T02:45:03.712Z,7.25
2019-06-26T02:47:34.650Z,12.55
2019-06-26T02:50:06.041Z,9.65
2019-06-26T02:52:37.168Z,6.80
2019-06-26T02:55:11.097Z,8.13
2019-06-26T02:57:42.093Z,13.43
2019-06-26T03:00:12.978Z,7.22
2019-06-26T03:02:44.092Z,12.75
2019-06-26T03:05:15.178Z,7.90
2019-06-26T03:07:45.960Z,7.03
2019-06-26T03:10:17.090Z,8.35
2019-06-26T03:12:48.407Z,8.05
2019-06-26T03:15:19.439Z,7.83
2019-06-26T03:17:55.201Z,13.72
2019-06-26T03:20:26.058Z,9.13
2019-06-26T03:22:56.918Z,11.60
2019-06-26T03:25:27.731Z,8.28
2019-06-26T03:27:58.567Z,9.78
2019-06-26T03:30:29.305Z,8.98
2019-06-26T03:33:00.380Z,8.53
2019-06-26T03:35:31.110Z,9.13
2019-06-26T03:38:01.891Z,8.50
2019-06-26T03:40:32.626Z,8.78
2019-06-26T03:43:03.591Z,9.75
2019-06-26T03:45:34.416Z,8.68
2019-06-26T03:48:05.260Z,9.50
2019-06-26T03:50:36.243Z,9.85
2019-06-26T03:53:07.109Z,9.40
2019-06-26T03:55:38.262Z,9.20
2019-06-26T03:58:09.330Z,9.83
2019-06-26T04:00:41.138Z,10.05
2019-06-26T04:03:11.970Z,9.35
2019-06-26T04:05:42.740Z,10.32
2019-06-26T04:08:13.774Z,11.27
2019-06-26T04:10:44.520Z,9.98
2019-06-26T04:13:15.498Z,11.55
2019-06-26T04:15:46.530Z,9.93
2019-06-26T04:18:17.527Z,9.80
2019-06-26T04:20:49.922Z,10.32
2019-06-26T04:23:21.154Z,11.25
2019-06-26T04:25:52.192Z,10.30
2019-06-26T04:28:23.266Z,10.90
2019-06-26T04:30:55.314Z,10.90
2019-06-26T04:33:26.088Z,10.90
2019-06-26T04:35:57.194Z,11.35
2019-06-26T04:38:28.166Z,13.95
2019-06-26T04:40:58.932Z,11.12
2019-06-26T04:43:30.125Z,12.75
2019-06-26T04:46:01.202Z,9.68
2019-06-26T04:48:31.943Z,9.05
2019-06-26T04:51:03.647Z,10.43
2019-06-26T04:53:34.401Z,9.40
2019-06-26T04:56:05.376Z,11.10
2019-06-26T04:58:36.450Z,9.88
2019-06-26T05:01:08.242Z,12.13
2019-06-26T05:03:39.238Z,11.15
2019-06-26T05:06:10.202Z,10.63
2019-06-26T05:08:40.957Z,10.95
2019-06-26T05:11:12.757Z,10.35
2019-06-26T05:13:44.201Z,8.75
2019-06-26T05:16:19.273Z,9.70
2019-06-26T05:18:47.410Z,8.53
2019-06-26T05:21:18.693Z,9.90
2019-06-26T05:23:49.416Z,9.03
2019-06-26T05:26:20.225Z,8.68
2019-06-26T05:28:51.212Z,9.30
2019-06-26T05:31:22.181Z,8.78
2019-06-26T05:33:53.421Z,9.03
2019-06-26T05:36:24.394Z,11.12
2019-06-26T05:38:55.665Z,9.88
2019-06-26T05:41:26.604Z,9.53
2019-06-26T05:43:57.826Z,13.10
2019-06-26T05:46:31.494Z,10.65
2019-06-26T05:49:01.319Z,10.35
2019-06-26T05:51:32.150Z,10.03
2019-06-26T05:54:02.992Z,10.70
2019-06-26T05:56:33.811Z,12.15
2019-06-26T05:59:05.053Z,13.32
2019-06-26T06:01:35.821Z,10.98
2019-06-26T06:04:06.857Z,10.63
2019-06-26T06:06:42.061Z,11.68
2019-06-26T06:09:11.238Z,10.85
2019-06-26T06:11:42.264Z,11.70
2019-06-26T06:14:13.317Z,13.30
2019-06-26T06:16:47.686Z,16.87
2019-06-26T06:19:17.051Z,18.30
2019-06-26T06:21:48.659Z,19.35
2019-06-26T06:24:20.028Z,24.37
2019-06-26T06:26:50.806Z,17.80
2019-06-26T06:29:21.908Z,20.95
2019-06-26T06:31:52.640Z,18.73
2019-06-26T06:34:23.637Z,23.07
2019-06-26T06:36:54.470Z,20.70
2019-06-26T06:39:25.447Z,17.57
2019-06-26T06:41:56.502Z,15.72
2019-06-26T06:44:27.256Z,16.97
2019-06-26T06:47:03.909Z,19.48
2019-06-26T06:49:31.183Z,24.23
2019-06-26T06:52:02.027Z,25.82
2019-06-26T06:54:33.023Z,18.73
2019-06-26T06:57:04.270Z,17.77
2019-06-26T06:59:36.307Z,16.42
2019-06-26T07:02:07.450Z,16.60
2019-06-26T07:04:38.196Z,18.35
2019-06-26T07:07:08.979Z,18.23
2019-06-26T07:09:39.738Z,14.68
2019-06-26T07:12:10.512Z,13.03
2019-06-26T07:14:41.291Z,15.20
2019-06-26T07:17:20.341Z,16.70
2019-06-26T07:19:45.330Z,13.05
2019-06-26T07:22:16.178Z,12.80
2019-06-26T07:24:47.183Z,14.25
2019-06-26T07:27:18.340Z,12.98
2019-06-26T07:29:49.366Z,13.25
2019-06-26T07:32:20.138Z,13.15
2019-06-26T07:34:50.974Z,14.60
2019-06-26T07:37:22.009Z,14.18
2019-06-26T07:39:57.565Z,13.25
2019-06-26T07:42:25.493Z,15.48
2019-06-26T07:44:56.831Z,10.58
2019-06-26T07:47:41.995Z,12.10
2019-06-26T07:50:00.264Z,9.98
2019-06-26T07:52:31.578Z,14.20
2019-06-26T07:55:02.572Z,10.32
2019-06-26T07:57:33.414Z,11.35
2019-06-26T08:00:04.978Z,16.75
2019-06-26T08:02:35.828Z,11.18
2019-06-26T08:05:07.362Z,12.55
2019-06-26T08:07:38.326Z,12.37
2019-06-26T08:10:09.759Z,11.53
2019-06-26T08:12:40.647Z,16.35
2019-06-26T08:15:11.524Z,13.40
2019-06-26T08:17:55.942Z,14.78
2019-06-26T08:20:15.566Z,12.37
2019-06-26T08:22:46.382Z,13.30
2019-06-26T08:25:17.487Z,11.60
2019-06-26T08:27:48.509Z,11.93
2019-06-26T08:30:20.103Z,10.32
2019-06-26T08:32:50.862Z,10.40
2019-06-26T08:35:21.687Z,12.53
2019-06-26T08:38:08.642Z,13.80
2019-06-26T08:40:25.178Z,14.13
2019-06-26T08:42:56.121Z,11.38
2019-06-26T08:45:26.889Z,11.35
2019-06-26T08:47:57.701Z,13.13
2019-06-26T08:50:28.477Z,13.62
2019-06-26T08:52:59.437Z,10.30
2019-06-26T08:55:31.177Z,16.87
2019-06-26T08:58:02.637Z,15.40
2019-06-26T09:00:33.493Z,11.10
2019-06-26T09:03:04.714Z,11.12
2019-06-26T09:05:47.452Z,16.07
2019-06-26T09:08:09.160Z,10.82
2019-06-26T09:10:40.179Z,14.55
2019-06-26T09:13:11.174Z,14.43
2019-06-26T09:15:42.436Z,12.58
2019-06-26T09:18:13.406Z,10.35
2019-06-26T09:20:44.720Z,10.72
2019-06-26T09:23:16.542Z,12.13
2019-06-26T09:25:47.536Z,12.07
2019-06-26T09:28:18.373Z,13.55
2019-06-26T09:30:49.127Z,12.45
2019-06-26T09:33:19.942Z,12.40
2019-06-26T09:35:51.663Z,12.58
2019-06-26T09:38:22.693Z,13.00
2019-06-26T09:40:53.440Z,13.25
2019-06-26T09:43:24.437Z,15.45
2019-06-26T09:45:55.748Z,10.98
2019-06-26T09:48:26.729Z,12.18
2019-06-26T09:50:57.802Z,13.43
2019-06-26T09:53:42.621Z,11.60
2019-06-26T09:56:01.330Z,13.78
2019-06-26T09:58:32.317Z,11.88
2019-06-26T10:01:03.133Z,12.30
2019-06-26T10:03:34.131Z,13.85
2019-06-26T10:06:04.962Z,12.07
2019-06-26T10:08:35.977Z,13.80
2019-06-26T10:11:06.810Z,11.65
2019-06-26T10:13:37.636Z,16.17
2019-06-26T10:16:08.633Z,20.80
2019-06-26T10:18:39.390Z,13.25
2019-06-26T10:21:10.211Z,11.30
2019-06-26T10:23:41.052Z,14.70
2019-06-26T10:26:11.792Z,12.20
2019-06-26T10:28:43.024Z,13.85
2019-06-26T10:31:14.006Z,13.35
2019-06-26T10:33:44.762Z,14.05
2019-06-26T10:36:15.521Z,15.03
2019-06-26T10:38:46.288Z,11.88
2019-06-26T10:41:17.751Z,14.50
2019-06-26T10:43:48.512Z,14.38
2019-06-26T10:46:19.503Z,10.70
2019-06-26T10:48:50.784Z,13.90
2019-06-26T10:51:21.882Z,14.18
2019-06-26T10:53:52.658Z,12.98
2019-06-26T10:56:23.501Z,12.53
2019-06-26T10:58:54.230Z,11.18
2019-06-26T11:01:25.338Z,11.45
2019-06-26T11:03:56.083Z,14.13
2019-06-26T11:06:27.094Z,12.50
2019-06-26T11:08:58.162Z,13.38
2019-06-26T11:11:29.603Z,17.00
2019-06-26T11:14:00.594Z,13.08
2019-06-26T11:16:32.559Z,14.60
2019-06-26T11:19:03.318Z,14.60
2019-06-26T11:21:34.338Z,16.00
2019-06-26T11:24:05.415Z,11.60
2019-06-26T11:26:36.390Z,10.93
2019-06-26T11:29:07.622Z,10.88
2019-06-26T11:31:38.475Z,13.40
2019-06-26T11:34:09.315Z,12.55
2019-06-26T11:36:40.320Z,13.10
2019-06-26T11:39:11.083Z,15.25
2019-06-26T11:41:42.405Z,10.10
2019-06-26T11:44:13.626Z,14.15
2019-06-26T11:46:44.392Z,16.85
2019-06-26T11:49:15.213Z,15.58
2019-06-26T11:51:46.207Z,12.95
2019-06-26T11:54:16.994Z,14.10
2019-06-26T11:56:48.090Z,16.87
2019-06-26T11:59:19.106Z,12.40
2019-06-26T12:01:50.263Z,18.65
2019-06-26T12:04:21.030Z,15.65
2019-06-26T12:06:52.018Z,13.48
2019-06-26T12:09:22.770Z,13.40
2019-06-26T12:11:53.562Z,10.72
2019-06-26T12:14:24.583Z,18.37
2019-06-26T12:16:55.378Z,14.63
2019-06-26T12:19:26.363Z,11.43
2019-06-26T12:21:57.355Z,11.25
2019-06-26T12:24:28.131Z,11.78
2019-06-26T12:26:58.879Z,12.47
2019-06-26T12:29:32.861Z,14.43
2019-06-26T12:32:03.033Z,14.58
2019-06-26T12:34:34.042Z,12.40
2019-06-26T12:37:05.124Z,11.18
2019-06-26T12:39:36.438Z,18.92
2019-06-26T12:42:07.270Z,16.62
2019-06-26T12:44:38.984Z,12.60
2019-06-26T12:47:09.732Z,13.68
2019-06-26T12:49:40.495Z,13.03
2019-06-26T12:52:11.488Z,15.10
2019-06-26T12:54:42.323Z,14.05
2019-06-26T12:57:13.299Z,15.50
2019-06-26T12:59:56.484Z,14.63
2019-06-26T13:02:17.045Z,10.05
2019-06-26T13:04:47.808Z,13.43
2019-06-26T13:07:19.600Z,12.00
2019-06-26T13:09:50.553Z,16.17
2019-06-26T13:12:21.454Z,9.23
2019-06-26T13:14:52.320Z,16.25
2019-06-26T13:17:23.058Z,12.73
2019-06-26T13:19:54.083Z,16.75
2019-06-26T13:22:25.077Z,10.63
2019-06-26T13:24:56.145Z,14.13
2019-06-26T13:27:27.099Z,13.05
2019-06-26T13:29:58.109Z,16.40
2019-06-26T13:32:28.862Z,17.07
2019-06-26T13:35:00.182Z,17.98
2019-06-26T13:37:31.063Z,10.48
2019-06-26T13:40:01.933Z,15.72
2019-06-26T13:42:32.756Z,11.05
2019-06-26T13:45:03.763Z,12.28
2019-06-26T13:47:34.792Z,14.03
2019-06-26T13:50:05.648Z,11.28
2019-06-26T13:52:37.356Z,15.35
2019-06-26T13:55:08.199Z,11.60
2019-06-26T13:57:39.176Z,15.00
2019-06-26T14:00:11.564Z,16.50
2019-06-26T14:02:42.394Z,16.65
2019-06-26T14:05:14.358Z,20.55
2019-06-26T14:07:45.111Z,16.52
2019-06-26T14:10:15.990Z,17.90
2019-06-26T14:12:46.971Z,15.03
2019-06-26T14:15:18.234Z,20.55
2019-06-26T14:17:49.074Z,14.30
2019-06-26T14:20:20.129Z,18.70
2019-06-26T14:22:51.048Z,15.68
2019-06-26T14:25:22.538Z,16.07
2019-06-26T14:27:53.640Z,10.78
2019-06-26T14:30:27.844Z,13.50
2019-06-26T14:32:57.361Z,12.37
2019-06-26T14:35:28.121Z,18.00
2019-06-26T14:37:59.158Z,16.12
2019-06-26T14:40:30.645Z,14.78
2019-06-26T14:43:01.469Z,17.85
2019-06-26T14:45:32.479Z,17.77
2019-06-26T14:48:03.480Z,14.30
2019-06-26T14:50:34.474Z,14.68
2019-06-26T14:53:05.619Z,14.50
2019-06-26T14:55:36.410Z,20.72
2019-06-26T14:58:07.722Z,19.90
2019-06-26T15:00:38.555Z,15.32
2019-06-26T15:03:09.810Z,12.98
2019-06-26T15:05:40.805Z,14.15
2019-06-26T15:08:11.802Z,14.55
2019-06-26T15:10:42.552Z,17.05
2019-06-26T15:13:13.316Z,12.05
2019-06-26T15:15:44.153Z,16.65
2019-06-26T15:18:15.522Z,15.10
2019-06-26T15:20:46.547Z,13.10
2019-06-26T15:23:17.337Z,15.90
2019-06-26T15:25:48.149Z,14.85
2019-06-26T15:28:18.917Z,11.65
2019-06-26T15:30:49.972Z,10.95
2019-06-26T15:33:20.993Z,17.73
2019-06-26T15:35:51.820Z,12.45
2019-06-26T15:38:23.369Z,15.95
2019-06-26T15:40:54.144Z,13.28
2019-06-26T15:43:24.999Z,13.05
2019-06-26T15:45:55.787Z,15.72
2019-06-26T15:48:26.542Z,17.45
2019-06-26T15:50:57.283Z,15.15
2019-06-26T15:53:28.363Z,14.87
2019-06-26T15:55:59.335Z,16.23
2019-06-26T15:58:30.104Z,17.60
2019-06-26T16:01:01.166Z,13.32
2019-06-26T16:03:32.474Z,17.45
2019-06-26T16:06:03.412Z,16.85
2019-06-26T16:08:34.650Z,17.02
2019-06-26T16:11:05.491Z,14.87
2019-06-26T16:13:36.618Z,17.70
2019-06-26T16:16:07.453Z,17.80
2019-06-26T16:18:43.281Z,18.95
2019-06-26T16:21:14.015Z,16.10
2019-06-26T16:23:44.783Z,17.98
2019-06-26T16:26:16.644Z,13.05
2019-06-26T16:28:47.801Z,18.12
2019-06-26T16:31:18.577Z,14.23
2019-06-26T16:33:49.572Z,15.08
2019-06-26T16:36:20.574Z,10.28
2019-06-26T16:38:51.930Z,12.60
2019-06-26T16:41:23.163Z,17.37
2019-06-26T16:43:54.158Z,17.25
2019-06-26T16:46:25.340Z,18.10
2019-06-26T16:48:56.597Z,16.55
2019-06-26T16:51:27.457Z,12.33
2019-06-26T16:53:58.217Z,12.40
2019-06-26T16:56:29.497Z,13.65
2019-06-26T16:59:00.344Z,18.10
2019-06-26T17:01:32.207Z,12.53
2019-06-26T17:04:03.336Z,14.07
2019-06-26T17:06:34.321Z,13.65
2019-06-26T17:09:07.086Z,15.93
2019-06-26T17:11:38.206Z,14.93
2019-06-26T17:14:08.977Z,15.85
2019-06-26T17:16:40.105Z,12.82
2019-06-26T17:19:10.910Z,14.33
2019-06-26T17:21:41.685Z,11.12
2019-06-26T17:24:12.485Z,13.28
2019-06-26T17:26:43.315Z,10.38
2019-06-26T17:29:14.564Z,12.93
2019-06-26T17:31:45.384Z,14.00
2019-06-26T17:34:16.497Z,15.90
2019-06-26T17:36:47.241Z,16.65
2019-06-26T17:39:18.578Z,15.35
2019-06-26T17:41:49.552Z,13.30
2019-06-26T17:44:20.387Z,15.48
2019-06-26T17:46:51.148Z,16.67
2019-06-26T17:49:22.090Z,19.85
2019-06-26T17:51:52.851Z,13.10
2019-06-26T17:54:23.679Z,19.95
2019-06-26T17:56:54.744Z,13.30
2019-06-26T17:59:25.852Z,17.57
2019-06-26T18:01:56.844Z,12.90
2019-06-26T18:04:27.845Z,18.52
2019-06-26T18:06:59.072Z,17.90
2019-06-26T18:09:30.066Z,17.48
2019-06-26T18:12:00.810Z,13.00
2019-06-26T18:14:31.574Z,15.53
2019-06-26T18:17:02.565Z,17.30
2019-06-26T18:19:33.343Z,14.43
2019-06-26T18:22:04.083Z,13.98
2019-06-26T18:24:35.087Z,14.23
2019-06-26T18:27:06.214Z,18.23
2019-06-26T18:29:37.213Z,19.17
2019-06-26T18:32:08.236Z,15.70
2019-06-26T18:34:39.609Z,18.30
2019-06-26T18:37:10.616Z,13.18
2019-06-26T18:39:41.764Z,20.20
2019-06-26T18:42:12.509Z,12.33
2019-06-26T18:44:43.504Z,14.05
2019-06-26T18:47:14.331Z,13.58
2019-06-26T18:49:45.431Z,13.10
2019-06-26T18:52:16.624Z,20.48
2019-06-26T18:54:47.628Z,16.97
2019-06-26T18:57:18.620Z,15.88
2019-06-26T18:59:49.455Z,13.70
2019-06-26T19:02:20.214Z,11.90
2019-06-26T19:04:54.014Z,19.23
2019-06-26T19:07:23.750Z,12.88
2019-06-26T19:09:54.520Z,15.10
2019-06-26T19:12:25.498Z,18.42
2019-06-26T19:14:56.262Z,19.98
2019-06-26T19:17:27.046Z,22.37
2019-06-26T19:19:57.909Z,18.20
2019-06-26T19:22:28.912Z,14.68
2019-06-26T19:25:00.189Z,13.38
2019-06-26T19:27:31.259Z,15.40
2019-06-26T19:30:02.358Z,15.78
2019-06-26T19:32:37.308Z,15.23
2019-06-26T19:35:17.817Z,14.87
2019-06-26T19:37:39.383Z,14.47
2019-06-26T19:40:10.628Z,16.77
2019-06-26T19:42:41.635Z,17.90
2019-06-26T19:45:13.982Z,15.75
2019-06-26T19:47:45.090Z,14.05
2019-06-26T19:50:16.070Z,16.00
2019-06-26T19:52:46.910Z,18.62
2019-06-26T19:55:17.888Z,14.63
2019-06-26T19:57:48.656Z,19.48
2019-06-26T20:00:19.482Z,15.98
2019-06-26T20:02:50.573Z,17.52
2019-06-26T20:05:21.349Z,19.00
2019-06-26T20:07:52.395Z,18.73
2019-06-26T20:10:23.230Z,19.10
2019-06-26T20:12:54.047Z,19.35
2019-06-26T20:15:25.867Z,16.70
2019-06-26T20:17:59.452Z,20.23
2019-06-26T20:20:31.674Z,16.82
2019-06-26T20:23:04.674Z,18.55
2019-06-26T20:25:36.608Z,14.95
2019-06-26T20:28:08.337Z,16.55
2019-06-26T20:30:39.779Z,13.25
2019-06-26T20:33:10.656Z,20.50
2019-06-26T20:35:42.112Z,16.32
2019-06-26T20:38:12.943Z,22.93
2019-06-26T20:40:46.004Z,13.90
2019-06-26T20:43:17.219Z,17.00
2019-06-26T20:45:48.111Z,17.23
2019-06-26T20:48:18.935Z,15.50
2019-06-26T20:50:49.786Z,13.72
2019-06-26T20:53:20.555Z,13.50
2019-06-26T20:55:51.807Z,14.33
2019-06-26T20:58:22.554Z,13.93
2019-06-26T21:00:53.387Z,13.50
2019-06-26T21:03:25.195Z,15.50
2019-06-26T21:05:55.984Z,14.43
2019-06-26T21:08:29.395Z,15.93
2019-06-26T21:10:59.815Z,17.67
2019-06-26T21:13:30.574Z,16.25
2019-06-26T21:16:01.797Z,16.12
2019-06-26T21:18:32.865Z,13.05
2019-06-26T21:21:03.636Z,17.52
2019-06-26T21:23:34.387Z,16.25
2019-06-26T21:26:05.221Z,15.80
2019-06-26T21:28:36.015Z,16.65
2019-06-26T21:31:07.017Z,13.60
2019-06-26T21:33:38.034Z,16.12
2019-06-26T21:36:09.078Z,16.77
2019-06-26T21:38:40.267Z,15.40
2019-06-26T21:41:11.340Z,18.50
2019-06-26T21:43:42.165Z,16.95
2019-06-26T21:46:13.000Z,16.15
2019-06-26T21:48:43.997Z,13.90
2019-06-26T21:51:14.782Z,14.80
2019-06-26T21:53:45.951Z,18.27
2019-06-26T21:56:34.139Z,17.37
2019-06-26T21:59:23.193Z,15.60
2019-06-26T22:02:11.761Z,16.55
2019-06-26T22:04:50.849Z,20.85
2019-06-26T22:07:29.403Z,24.47
2019-06-26T22:10:05.151Z,34.65
2019-06-26T22:12:37.583Z,17.67
2019-06-26T22:15:08.871Z,13.72
2019-06-26T22:17:41.426Z,15.83
2019-06-26T22:20:13.023Z,17.20
2019-06-26T22:22:44.893Z,13.22
2019-06-26T22:25:16.012Z,15.75
2019-06-26T22:27:47.130Z,13.62
2019-06-26T22:30:18.343Z,13.95
2019-06-26T22:32:49.356Z,15.63
2019-06-26T22:35:20.432Z,15.83
2019-06-26T22:37:51.418Z,13.40
2019-06-26T22:40:22.576Z,15.95
2019-06-26T22:42:53.399Z,14.38
2019-06-26T22:45:24.237Z,13.70
2019-06-26T22:47:55.307Z,15.80
2019-06-26T22:50:26.383Z,14.28
2019-06-26T22:52:57.132Z,16.05
2019-06-26T22:55:27.904Z,14.58
2019-06-26T22:57:58.975Z,14.10
2019-06-26T23:00:30.520Z,13.72
2019-06-26T23:03:01.297Z,14.90
2019-06-26T23:05:32.364Z,16.95
2019-06-26T23:08:03.463Z,16.60
2019-06-26T23:10:34.475Z,24.32
2019-06-26T23:13:05.543Z,13.65
2019-06-26T23:15:36.675Z,14.35
2019-06-26T23:18:08.013Z,15.13
2019-06-26T23:20:39.010Z,13.88
2019-06-26T23:23:09.980Z,15.53
2019-06-26T23:25:40.739Z,14.73
2019-06-26T23:28:11.563Z,16.30
2019-06-26T23:30:42.554Z,14.87
2019-06-26T23:33:13.304Z,14.33
2019-06-26T23:35:44.072Z,17.12
2019-06-26T23:38:15.040Z,14.63
2019-06-26T23:40:46.302Z,14.73
2019-06-26T23:43:18.100Z,14.43
2019-06-26T23:45:49.269Z,14.58
2019-06-26T23:48:20.518Z,14.85
2019-06-26T23:50:51.744Z,15.35
2019-06-26T23:53:23.245Z,14.28
2019-06-26T23:55:54.568Z,15.00
2019-06-26T23:58:25.561Z,14.28
